sensor_id;sensor_type;location;lat;lon;timestamp;pressure;altitude;pressure_sealevel;temperature;humidity
75855;BME280;64502;59.976;30.316;2022-12-18T00:01:24;102433.50;;;-3.78;66.80
75855;BME280;64502;59.976;30.316;2022-12-18T00:03:51;102437.63;;;-3.85;66.19
75855;BME280;64502;59.976;30.316;2022-12-18T00:06:17;102437.41;;;-3.91;67.06
75855;BME280;64502;59.976;30.316;2022-12-18T00:08:44;102438.19;;;-3.93;66.76
75855;BME280;64502;59.976;30.316;2022-12-18T00:11:16;102431.31;;;-3.94;67.35
75855;BME280;64502;59.976;30.316;2022-12-18T00:13:42;102434.63;;;-3.98;67.57
75855;BME280;64502;59.976;30.316;2022-12-18T00:16:14;102436.28;;;-4.00;66.63
75855;BME280;64502;59.976;30.316;2022-12-18T00:18:41;102442.16;;;-4.06;66.57
75855;BME280;64502;59.976;30.316;2022-12-18T00:21:09;102434.22;;;-4.12;66.61
75855;BME280;64502;59.976;30.316;2022-12-18T00:23:36;102432.28;;;-4.19;67.03
75855;BME280;64502;59.976;30.316;2022-12-18T00:26:06;102431.28;;;-4.25;67.34
75855;BME280;64502;59.976;30.316;2022-12-18T00:28:32;102434.69;;;-4.26;67.36
75855;BME280;64502;59.976;30.316;2022-12-18T00:31:09;102432.94;;;-4.27;68.56
75855;BME280;64502;59.976;30.316;2022-12-18T00:33:36;102429.41;;;-4.29;68.25
75855;BME280;64502;59.976;30.316;2022-12-18T00:36:04;102421.75;;;-4.27;67.96
75855;BME280;64502;59.976;30.316;2022-12-18T00:38:30;102414.94;;;-4.25;67.75
75855;BME280;64502;59.976;30.316;2022-12-18T00:40:56;102424.50;;;-4.21;67.72
75855;BME280;64502;59.976;30.316;2022-12-18T00:43:22;102417.69;;;-4.19;68.17
75855;BME280;64502;59.976;30.316;2022-12-18T00:45:47;102422.84;;;-4.19;67.13
75855;BME280;64502;59.976;30.316;2022-12-18T00:48:13;102423.72;;;-4.18;67.84
75855;BME280;64502;59.976;30.316;2022-12-18T00:50:38;102411.69;;;-4.19;67.70
75855;BME280;64502;59.976;30.316;2022-12-18T00:53:04;102417.63;;;-4.20;67.98
75855;BME280;64502;59.976;30.316;2022-12-18T00:55:30;102404.72;;;-4.22;67.66
75855;BME280;64502;59.976;30.316;2022-12-18T00:57:55;102408.22;;;-4.20;68.31
75855;BME280;64502;59.976;30.316;2022-12-18T01:00:21;102405.78;;;-4.15;68.31
75855;BME280;64502;59.976;30.316;2022-12-18T01:02:47;102408.41;;;-4.14;67.80
75855;BME280;64502;59.976;30.316;2022-12-18T01:05:13;102399.84;;;-4.13;68.64
75855;BME280;64502;59.976;30.316;2022-12-18T01:07:39;102408.66;;;-4.05;68.97
75855;BME280;64502;59.976;30.316;2022-12-18T01:10:06;102406.16;;;-4.03;68.14
75855;BME280;64502;59.976;30.316;2022-12-18T01:12:32;102405.31;;;-4.02;67.70
75855;BME280;64502;59.976;30.316;2022-12-18T01:14:57;102402.72;;;-4.02;68.53
75855;BME280;64502;59.976;30.316;2022-12-18T01:17:23;102393.34;;;-4.00;69.37
75855;BME280;64502;59.976;30.316;2022-12-18T01:19:49;102396.88;;;-3.96;69.36
75855;BME280;64502;59.976;30.316;2022-12-18T01:22:15;102393.50;;;-3.94;69.36
75855;BME280;64502;59.976;30.316;2022-12-18T01:24:40;102385.81;;;-3.92;67.88
75855;BME280;64502;59.976;30.316;2022-12-18T01:27:06;102387.63;;;-3.90;67.79
75855;BME280;64502;59.976;30.316;2022-12-18T01:29:32;102382.47;;;-3.90;68.39
75855;BME280;64502;59.976;30.316;2022-12-18T01:31:57;102384.25;;;-3.87;68.45
75855;BME280;64502;59.976;30.316;2022-12-18T01:34:24;102378.34;;;-3.83;68.01
75855;BME280;64502;59.976;30.316;2022-12-18T01:36:49;102382.66;;;-3.82;67.34
75855;BME280;64502;59.976;30.316;2022-12-18T01:39:18;102386.03;;;-3.85;67.83
75855;BME280;64502;59.976;30.316;2022-12-18T01:41:44;102392.84;;;-3.87;66.66
75855;BME280;64502;59.976;30.316;2022-12-18T01:52:51;102398.72;;;-3.92;68.35
75855;BME280;64502;59.976;30.316;2022-12-18T01:55:19;102392.81;;;-3.88;68.16
75855;BME280;64502;59.976;30.316;2022-12-18T01:57:46;102388.56;;;-3.86;67.96
75855;BME280;64502;59.976;30.316;2022-12-18T02:00:15;102386.06;;;-3.83;68.07
75855;BME280;64502;59.976;30.316;2022-12-18T02:02:41;102386.22;;;-3.78;67.80
75855;BME280;64502;59.976;30.316;2022-12-18T02:05:10;102381.16;;;-3.74;68.40
75855;BME280;64502;59.976;30.316;2022-12-18T02:08:02;102382.06;;;-3.72;67.64
75855;BME280;64502;59.976;30.316;2022-12-18T02:10:30;102390.56;;;-3.76;67.21
75855;BME280;64502;59.976;30.316;2022-12-18T02:16:14;102383.66;;;-3.77;68.24
75855;BME280;64502;59.976;30.316;2022-12-18T02:18:38;102375.09;;;-3.76;68.13
75855;BME280;64502;59.976;30.316;2022-12-18T02:24:18;102371.75;;;-3.73;68.36
75855;BME280;64502;59.976;30.316;2022-12-18T02:27:03;102366.56;;;-3.73;67.96
75855;BME280;64502;59.976;30.316;2022-12-18T02:29:37;102370.94;;;-3.71;67.86
75855;BME280;64502;59.976;30.316;2022-12-18T02:32:08;102362.38;;;-3.70;67.68
75855;BME280;64502;59.976;30.316;2022-12-18T02:34:38;102364.03;;;-3.72;67.94
75855;BME280;64502;59.976;30.316;2022-12-18T02:37:06;102368.25;;;-3.74;67.29
75855;BME280;64502;59.976;30.316;2022-12-18T02:39:35;102363.06;;;-3.75;68.50
75855;BME280;64502;59.976;30.316;2022-12-18T02:42:03;102366.38;;;-3.81;66.93
75855;BME280;64502;59.976;30.316;2022-12-18T02:44:34;102365.34;;;-3.86;68.49
75855;BME280;64502;59.976;30.316;2022-12-18T02:47:00;102367.84;;;-3.89;67.78
75855;BME280;64502;59.976;30.316;2022-12-18T02:57:34;102367.69;;;-3.95;68.94
75855;BME280;64502;59.976;30.316;2022-12-18T03:00:14;102365.63;;;-4.07;67.65
75855;BME280;64502;59.976;30.316;2022-12-18T03:02:45;102374.66;;;-4.21;67.78
75855;BME280;64502;59.976;30.316;2022-12-18T03:05:20;102371.84;;;-4.29;68.36
75855;BME280;64502;59.976;30.316;2022-12-18T03:07:55;102370.66;;;-4.40;68.56
75855;BME280;64502;59.976;30.316;2022-12-18T03:10:27;102371.38;;;-4.46;68.83
75855;BME280;64502;59.976;30.316;2022-12-18T03:13:09;102376.50;;;-4.46;69.10
75855;BME280;64502;59.976;30.316;2022-12-18T03:15:40;102378.06;;;-4.51;69.46
75855;BME280;64502;59.976;30.316;2022-12-18T03:18:12;102377.03;;;-4.58;70.67
75855;BME280;64502;59.976;30.316;2022-12-18T03:20:41;102377.06;;;-4.56;70.88
75855;BME280;64502;59.976;30.316;2022-12-18T03:23:15;102368.63;;;-4.51;70.47
75855;BME280;64502;59.976;30.316;2022-12-18T03:25:44;102369.75;;;-4.42;71.24
75855;BME280;64502;59.976;30.316;2022-12-18T03:28:14;102369.06;;;-4.37;69.90
75855;BME280;64502;59.976;30.316;2022-12-18T03:30:43;102381.91;;;-4.38;69.43
75855;BME280;64502;59.976;30.316;2022-12-18T03:36:13;102375.69;;;-4.45;69.72
75855;BME280;64502;59.976;30.316;2022-12-18T03:38:39;102383.28;;;-4.50;69.08
75855;BME280;64502;59.976;30.316;2022-12-18T03:43:52;102373.47;;;-4.61;69.76
75855;BME280;64502;59.976;30.316;2022-12-18T03:46:28;102379.38;;;-4.65;69.36
75855;BME280;64502;59.976;30.316;2022-12-18T03:49:03;102384.25;;;-4.73;69.75
75855;BME280;64502;59.976;30.316;2022-12-18T03:51:40;102393.50;;;-4.80;69.90
75855;BME280;64502;59.976;30.316;2022-12-18T03:54:08;102389.03;;;-4.85;70.13
75855;BME280;64502;59.976;30.316;2022-12-18T03:56:42;102389.66;;;-4.93;70.03
75855;BME280;64502;59.976;30.316;2022-12-18T03:59:10;102386.91;;;-4.99;70.18
75855;BME280;64502;59.976;30.316;2022-12-18T04:01:46;102390.06;;;-5.07;70.58
75855;BME280;64502;59.976;30.316;2022-12-18T04:04:14;102388.91;;;-5.16;70.59
75855;BME280;64502;59.976;30.316;2022-12-18T04:06:42;102377.53;;;-5.22;70.62
75855;BME280;64502;59.976;30.316;2022-12-18T04:09:09;102382.66;;;-5.24;71.36
75855;BME280;64502;59.976;30.316;2022-12-18T04:11:35;102378.41;;;-5.22;70.97
75855;BME280;64502;59.976;30.316;2022-12-18T04:14:00;102368.22;;;-5.19;71.08
75855;BME280;64502;59.976;30.316;2022-12-18T04:16:26;102364.00;;;-5.17;71.13
75855;BME280;64502;59.976;30.316;2022-12-18T04:18:52;102357.31;;;-5.11;70.49
75855;BME280;64502;59.976;30.316;2022-12-18T04:21:19;102359.09;;;-5.09;70.98
75855;BME280;64502;59.976;30.316;2022-12-18T04:23:44;102362.38;;;-5.13;70.54
75855;BME280;64502;59.976;30.316;2022-12-18T04:26:10;102357.91;;;-5.19;71.35
75855;BME280;64502;59.976;30.316;2022-12-18T04:28:36;102368.28;;;-5.17;70.98
75855;BME280;64502;59.976;30.316;2022-12-18T04:31:01;102370.06;;;-5.15;71.57
75855;BME280;64502;59.976;30.316;2022-12-18T04:33:27;102379.59;;;-5.12;71.07
75855;BME280;64502;59.976;30.316;2022-12-18T04:35:53;102389.88;;;-5.12;70.64
75855;BME280;64502;59.976;30.316;2022-12-18T04:38:18;102388.75;;;-5.20;70.78
75855;BME280;64502;59.976;30.316;2022-12-18T04:40:44;102386.97;;;-5.23;71.61
75855;BME280;64502;59.976;30.316;2022-12-18T04:43:10;102380.94;;;-5.23;71.46
75855;BME280;64502;59.976;30.316;2022-12-18T04:45:35;102383.50;;;-5.23;71.64
75855;BME280;64502;59.976;30.316;2022-12-18T04:48:01;102381.81;;;-5.23;71.46
75855;BME280;64502;59.976;30.316;2022-12-18T04:50:27;102379.34;;;-5.20;71.25
75855;BME280;64502;59.976;30.316;2022-12-18T04:52:53;102387.16;;;-5.17;71.42
75855;BME280;64502;59.976;30.316;2022-12-18T04:55:19;102381.91;;;-5.20;71.60
75855;BME280;64502;59.976;30.316;2022-12-18T04:57:44;102378.47;;;-5.20;70.91
75855;BME280;64502;59.976;30.316;2022-12-18T05:00:10;102380.09;;;-5.22;71.55
75855;BME280;64502;59.976;30.316;2022-12-18T05:02:36;102378.38;;;-5.23;71.78
75855;BME280;64502;59.976;30.316;2022-12-18T05:05:02;102381.81;;;-5.23;71.76
75855;BME280;64502;59.976;30.316;2022-12-18T05:07:29;102382.84;;;-5.18;71.81
75855;BME280;64502;59.976;30.316;2022-12-18T05:09:55;102392.13;;;-5.21;71.96
75855;BME280;64502;59.976;30.316;2022-12-18T05:12:20;102380.84;;;-5.26;71.93
75855;BME280;64502;59.976;30.316;2022-12-18T05:14:46;102381.63;;;-5.29;71.85
75855;BME280;64502;59.976;30.316;2022-12-18T05:17:11;102381.44;;;-5.33;71.79
75855;BME280;64502;59.976;30.316;2022-12-18T05:19:37;102370.13;;;-5.39;71.69
75855;BME280;64502;59.976;30.316;2022-12-18T05:22:03;102387.97;;;-5.43;72.33
75855;BME280;64502;59.976;30.316;2022-12-18T05:24:28;102383.56;;;-5.47;72.07
75855;BME280;64502;59.976;30.316;2022-12-18T05:26:54;102379.28;;;-5.47;73.40
75855;BME280;64502;59.976;30.316;2022-12-18T05:29:20;102380.97;;;-5.47;72.88
75855;BME280;64502;59.976;30.316;2022-12-18T05:31:45;102370.72;;;-5.46;72.59
75855;BME280;64502;59.976;30.316;2022-12-18T05:34:11;102374.09;;;-5.48;72.51
75855;BME280;64502;59.976;30.316;2022-12-18T05:36:36;102370.53;;;-5.52;72.64
75855;BME280;64502;59.976;30.316;2022-12-18T05:39:02;102378.09;;;-5.56;72.74
75855;BME280;64502;59.976;30.316;2022-12-18T05:41:28;102388.22;;;-5.61;73.32
75855;BME280;64502;59.976;30.316;2022-12-18T05:43:55;102378.53;;;-5.68;72.90
75855;BME280;64502;59.976;30.316;2022-12-18T05:46:21;102385.38;;;-5.69;73.90
75855;BME280;64502;59.976;30.316;2022-12-18T05:48:46;102384.50;;;-5.69;73.87
75855;BME280;64502;59.976;30.316;2022-12-18T05:51:14;102378.69;;;-5.64;74.05
75855;BME280;64502;59.976;30.316;2022-12-18T05:53:40;102377.19;;;-5.57;74.15
75855;BME280;64502;59.976;30.316;2022-12-18T05:56:11;102381.81;;;-5.48;74.10
75855;BME280;64502;59.976;30.316;2022-12-18T05:58:37;102386.31;;;-5.41;72.98
75855;BME280;64502;59.976;30.316;2022-12-18T06:03:36;102387.63;;;-5.28;73.48
75855;BME280;64502;59.976;30.316;2022-12-18T06:06:01;102375.56;;;-5.29;71.53
75855;BME280;64502;59.976;30.316;2022-12-18T06:08:27;102381.53;;;-5.30;72.37
75855;BME280;64502;59.976;30.316;2022-12-18T06:10:53;102385.91;;;-5.28;72.34
75855;BME280;64502;59.976;30.316;2022-12-18T06:13:20;102382.31;;;-5.33;71.79
75855;BME280;64502;59.976;30.316;2022-12-18T06:15:45;102383.28;;;-5.29;71.31
75855;BME280;64502;59.976;30.316;2022-12-18T06:18:11;102385.75;;;-5.32;71.69
75855;BME280;64502;59.976;30.316;2022-12-18T06:20:36;102389.84;;;-5.39;71.73
75855;BME280;64502;59.976;30.316;2022-12-18T06:23:05;102389.63;;;-5.45;71.58
75855;BME280;64502;59.976;30.316;2022-12-18T06:25:31;102386.69;;;-5.56;71.56
75855;BME280;64502;59.976;30.316;2022-12-18T06:27:56;102383.56;;;-5.71;72.22
75855;BME280;64502;59.976;30.316;2022-12-18T06:30:22;102385.97;;;-5.76;72.73
75855;BME280;64502;59.976;30.316;2022-12-18T06:32:49;102380.72;;;-5.79;73.16
75855;BME280;64502;59.976;30.316;2022-12-18T06:35:14;102385.88;;;-5.79;73.30
75855;BME280;64502;59.976;30.316;2022-12-18T06:37:40;102384.97;;;-5.81;72.52
75855;BME280;64502;59.976;30.316;2022-12-18T06:40:06;102378.88;;;-5.83;72.96
75855;BME280;64502;59.976;30.316;2022-12-18T06:42:32;102385.72;;;-5.84;72.82
75855;BME280;64502;59.976;30.316;2022-12-18T06:44:57;102376.19;;;-5.86;73.10
75855;BME280;64502;59.976;30.316;2022-12-18T06:47:23;102374.31;;;-5.90;72.83
75855;BME280;64502;59.976;30.316;2022-12-18T06:49:48;102380.16;;;-5.96;73.31
75855;BME280;64502;59.976;30.316;2022-12-18T06:52:14;102387.00;;;-5.96;73.38
75855;BME280;64502;59.976;30.316;2022-12-18T06:54:39;102379.75;;;-6.07;73.61
75855;BME280;64502;59.976;30.316;2022-12-18T06:57:05;102377.94;;;-6.09;73.26
75855;BME280;64502;59.976;30.316;2022-12-18T06:59:31;102373.44;;;-6.16;73.36
75855;BME280;64502;59.976;30.316;2022-12-18T07:01:56;102364.56;;;-6.24;73.11
75855;BME280;64502;59.976;30.316;2022-12-18T07:04:22;102373.16;;;-6.46;73.78
75855;BME280;64502;59.976;30.316;2022-12-18T07:06:47;102376.06;;;-6.60;73.61
75855;BME280;64502;59.976;30.316;2022-12-18T07:09:14;102380.06;;;-6.66;74.19
75855;BME280;64502;59.976;30.316;2022-12-18T07:11:40;102378.25;;;-6.69;74.04
75855;BME280;64502;59.976;30.316;2022-12-18T07:14:05;102385.66;;;-6.77;74.62
75855;BME280;64502;59.976;30.316;2022-12-18T07:16:31;102388.09;;;-6.80;74.50
75855;BME280;64502;59.976;30.316;2022-12-18T07:18:56;102387.09;;;-6.83;74.81
75855;BME280;64502;59.976;30.316;2022-12-18T07:21:23;102391.13;;;-6.90;74.33
75855;BME280;64502;59.976;30.316;2022-12-18T07:23:49;102389.19;;;-6.96;74.71
75855;BME280;64502;59.976;30.316;2022-12-18T07:26:16;102384.63;;;-7.03;75.07
75855;BME280;64502;59.976;30.316;2022-12-18T07:28:42;102388.75;;;-7.06;75.23
75855;BME280;64502;59.976;30.316;2022-12-18T07:31:13;102393.88;;;-7.06;75.62
75855;BME280;64502;59.976;30.316;2022-12-18T07:33:40;102389.50;;;-7.09;75.37
75855;BME280;64502;59.976;30.316;2022-12-18T07:36:07;102393.13;;;-7.04;75.89
75855;BME280;64502;59.976;30.316;2022-12-18T07:38:34;102390.56;;;-7.04;75.34
75855;BME280;64502;59.976;30.316;2022-12-18T07:41:05;102394.13;;;-7.00;75.25
75855;BME280;64502;59.976;30.316;2022-12-18T07:43:31;102395.94;;;-6.98;75.58
75855;BME280;64502;59.976;30.316;2022-12-18T07:45:57;102389.25;;;-6.94;75.29
75855;BME280;64502;59.976;30.316;2022-12-18T07:48:23;102390.94;;;-6.95;75.58
75855;BME280;64502;59.976;30.316;2022-12-18T07:50:49;102397.00;;;-6.93;75.53
75855;BME280;64502;59.976;30.316;2022-12-18T07:53:14;102390.31;;;-6.89;75.64
75855;BME280;64502;59.976;30.316;2022-12-18T07:55:41;102383.34;;;-6.92;75.75
75855;BME280;64502;59.976;30.316;2022-12-18T07:58:07;102378.53;;;-6.84;75.69
75855;BME280;64502;59.976;30.316;2022-12-18T08:00:33;102376.00;;;-6.82;75.45
75855;BME280;64502;59.976;30.316;2022-12-18T08:02:59;102359.00;;;-6.80;75.60
75855;BME280;64502;59.976;30.316;2022-12-18T08:05:25;102340.28;;;-6.78;75.42
75855;BME280;64502;59.976;30.316;2022-12-18T08:07:51;102349.84;;;-6.74;75.02
75855;BME280;64502;59.976;30.316;2022-12-18T08:10:17;102346.69;;;-6.66;75.04
75855;BME280;64502;59.976;30.316;2022-12-18T08:12:42;102346.81;;;-6.63;75.02
75855;BME280;64502;59.976;30.316;2022-12-18T08:15:08;102338.34;;;-6.61;74.66
75855;BME280;64502;59.976;30.316;2022-12-18T08:17:34;102330.75;;;-6.58;74.97
75855;BME280;64502;59.976;30.316;2022-12-18T08:20:00;102336.91;;;-6.54;75.06
75855;BME280;64502;59.976;30.316;2022-12-18T08:22:25;102338.88;;;-6.47;74.83
75855;BME280;64502;59.976;30.316;2022-12-18T08:24:51;102320.31;;;-6.40;74.48
75855;BME280;64502;59.976;30.316;2022-12-18T08:27:17;102334.97;;;-6.37;74.45
75855;BME280;64502;59.976;30.316;2022-12-18T08:29:42;102355.03;;;-6.27;74.81
75855;BME280;64502;59.976;30.316;2022-12-18T08:32:08;102368.03;;;-6.22;74.56
75855;BME280;64502;59.976;30.316;2022-12-18T08:34:34;102373.34;;;-6.18;74.37
75855;BME280;64502;59.976;30.316;2022-12-18T08:36:59;102367.16;;;-6.23;73.91
75855;BME280;64502;59.976;30.316;2022-12-18T08:39:25;102363.72;;;-6.23;73.93
75855;BME280;64502;59.976;30.316;2022-12-18T08:41:50;102356.25;;;-6.17;74.23
75855;BME280;64502;59.976;30.316;2022-12-18T08:44:36;102357.50;;;-6.06;74.54
75855;BME280;64502;59.976;30.316;2022-12-18T08:47:07;102354.53;;;-5.93;74.02
75855;BME280;64502;59.976;30.316;2022-12-18T08:49:35;102355.78;;;-5.82;73.60
75855;BME280;64502;59.976;30.316;2022-12-18T08:52:00;102347.38;;;-5.77;73.31
75855;BME280;64502;59.976;30.316;2022-12-18T08:54:27;102355.00;;;-5.79;72.92
75855;BME280;64502;59.976;30.316;2022-12-18T08:56:52;102352.97;;;-5.89;71.97
75855;BME280;64502;59.976;30.316;2022-12-18T08:59:18;102346.13;;;-5.89;73.02
75855;BME280;64502;59.976;30.316;2022-12-18T09:01:44;102338.34;;;-5.90;73.02
75855;BME280;64502;59.976;30.316;2022-12-18T09:04:10;102337.66;;;-5.86;73.18
75855;BME280;64502;59.976;30.316;2022-12-18T09:06:37;102329.28;;;-5.81;72.71
75855;BME280;64502;59.976;30.316;2022-12-18T09:09:03;102331.00;;;-5.80;72.54
75855;BME280;64502;59.976;30.316;2022-12-18T09:11:29;102330.31;;;-5.75;72.63
75855;BME280;64502;59.976;30.316;2022-12-18T09:13:55;102338.94;;;-5.73;72.13
75855;BME280;64502;59.976;30.316;2022-12-18T09:16:22;102336.34;;;-5.73;73.22
75855;BME280;64502;59.976;30.316;2022-12-18T09:18:48;102323.56;;;-5.72;72.68
75855;BME280;64502;59.976;30.316;2022-12-18T09:21:16;102330.50;;;-5.69;72.22
75855;BME280;64502;59.976;30.316;2022-12-18T09:23:42;102319.38;;;-5.70;72.49
75855;BME280;64502;59.976;30.316;2022-12-18T09:26:08;102323.84;;;-5.64;72.73
75855;BME280;64502;59.976;30.316;2022-12-18T09:28:33;102326.53;;;-5.60;72.32
75855;BME280;64502;59.976;30.316;2022-12-18T09:31:04;102328.41;;;-5.55;72.54
75855;BME280;64502;59.976;30.316;2022-12-18T09:33:29;102330.22;;;-5.53;72.10
75855;BME280;64502;59.976;30.316;2022-12-18T09:35:55;102319.97;;;-5.51;71.81
75855;BME280;64502;59.976;30.316;2022-12-18T09:38:20;102323.31;;;-5.54;71.47
75855;BME280;64502;59.976;30.316;2022-12-18T09:40:51;102321.66;;;-5.52;71.37
75855;BME280;64502;59.976;30.316;2022-12-18T09:43:36;102325.09;;;-5.51;71.43
75855;BME280;64502;59.976;30.316;2022-12-18T09:46:09;102320.03;;;-5.50;71.45
75855;BME280;64502;59.976;30.316;2022-12-18T09:48:42;102313.84;;;-5.55;70.73
75855;BME280;64502;59.976;30.316;2022-12-18T09:51:19;102305.31;;;-5.54;70.53
75855;BME280;64502;59.976;30.316;2022-12-18T09:53:54;102307.75;;;-5.59;70.20
75855;BME280;64502;59.976;30.316;2022-12-18T09:56:22;102312.00;;;-5.59;70.90
75855;BME280;64502;59.976;30.316;2022-12-18T09:59:00;102307.78;;;-5.57;70.39
75855;BME280;64502;59.976;30.316;2022-12-18T10:01:28;102300.13;;;-5.55;70.93
75855;BME280;64502;59.976;30.316;2022-12-18T10:03:54;102301.66;;;-5.61;70.80
75855;BME280;64502;59.976;30.316;2022-12-18T10:14:30;102292.06;;;-5.66;70.59
75855;BME280;64502;59.976;30.316;2022-12-18T10:17:05;102297.13;;;-5.68;71.11
75855;BME280;64502;59.976;30.316;2022-12-18T10:19:39;102294.69;;;-5.65;70.26
75855;BME280;64502;59.976;30.316;2022-12-18T10:22:38;102296.47;;;-5.62;70.30
75855;BME280;64502;59.976;30.316;2022-12-18T10:25:21;102298.94;;;-5.65;70.11
75855;BME280;64502;59.976;30.316;2022-12-18T10:27:51;102298.72;;;-5.71;70.80
75855;BME280;64502;59.976;30.316;2022-12-18T10:30:21;102301.38;;;-5.70;71.54
75855;BME280;64502;59.976;30.316;2022-12-18T10:32:47;102293.66;;;-5.70;70.95
75855;BME280;64502;59.976;30.316;2022-12-18T10:35:24;102294.78;;;-5.62;71.31
75855;BME280;64502;59.976;30.316;2022-12-18T10:38:05;102295.06;;;-5.52;71.16
75855;BME280;64502;59.976;30.316;2022-12-18T10:40:31;102295.25;;;-5.48;72.02
75855;BME280;64502;59.976;30.316;2022-12-18T10:43:14;102286.16;;;-5.37;71.26
75855;BME280;64502;59.976;30.316;2022-12-18T10:45:41;102280.34;;;-5.31;70.89
75855;BME280;64502;59.976;30.316;2022-12-18T10:48:20;102275.38;;;-5.26;70.98
75855;BME280;64502;59.976;30.316;2022-12-18T10:50:49;102271.09;;;-5.26;70.46
75855;BME280;64502;59.976;30.316;2022-12-18T10:53:21;102292.53;;;-5.25;69.69
75855;BME280;64502;59.976;30.316;2022-12-18T10:55:47;102287.63;;;-5.45;70.06
75855;BME280;64502;59.976;30.316;2022-12-18T10:58:37;102290.19;;;-5.45;70.99
75855;BME280;64502;59.976;30.316;2022-12-18T11:01:08;102279.75;;;-5.49;70.96
75855;BME280;64502;59.976;30.316;2022-12-18T11:03:45;102281.28;;;-5.54;70.70
75855;BME280;64502;59.976;30.316;2022-12-18T11:06:13;102276.88;;;-5.59;70.96
75855;BME280;64502;59.976;30.316;2022-12-18T11:08:41;102287.56;;;-5.72;71.30
75855;BME280;64502;59.976;30.316;2022-12-18T11:11:21;102282.16;;;-5.80;71.65
75855;BME280;64502;59.976;30.316;2022-12-18T11:16:22;102284.34;;;-5.92;72.44
75855;BME280;64502;59.976;30.316;2022-12-18T11:18:49;102287.00;;;-5.89;72.47
75855;BME280;64502;59.976;30.316;2022-12-18T11:21:14;102281.25;;;-5.82;72.31
75855;BME280;64502;59.976;30.316;2022-12-18T11:23:58;102273.03;;;-5.71;72.94
75855;BME280;64502;59.976;30.316;2022-12-18T11:26:33;102265.59;;;-5.62;73.08
75855;BME280;64502;59.976;30.316;2022-12-18T11:29:12;102257.69;;;-5.68;71.68
75855;BME280;64502;59.976;30.316;2022-12-18T11:31:40;102253.19;;;-5.75;72.01
75855;BME280;64502;59.976;30.316;2022-12-18T11:36:42;102247.59;;;-5.89;72.67
75855;BME280;64502;59.976;30.316;2022-12-18T11:39:27;102246.53;;;-5.96;73.07
75855;BME280;64502;59.976;30.316;2022-12-18T11:41:59;102245.69;;;-5.95;73.54
75855;BME280;64502;59.976;30.316;2022-12-18T11:44:52;102241.53;;;-5.90;73.52
75855;BME280;64502;59.976;30.316;2022-12-18T11:47:38;102236.00;;;-5.76;73.60
75855;BME280;64502;59.976;30.316;2022-12-18T11:50:13;102237.78;;;-5.75;72.97
75855;BME280;64502;59.976;30.316;2022-12-18T11:52:40;102230.06;;;-5.75;73.16
75855;BME280;64502;59.976;30.316;2022-12-18T12:00:45;102217.84;;;-5.55;72.27
75855;BME280;64502;59.976;30.316;2022-12-18T12:08:34;102205.25;;;-5.46;72.70
75855;BME280;64502;59.976;30.316;2022-12-18T12:11:15;102208.50;;;-5.52;72.88
75855;BME280;64502;59.976;30.316;2022-12-18T12:22:07;102208.56;;;-5.50;74.38
75855;BME280;64502;59.976;30.316;2022-12-18T12:30:30;102209.00;;;-5.37;73.85
75855;BME280;64502;59.976;30.316;2022-12-18T12:33:30;102203.09;;;-5.32;73.56
75855;BME280;64502;59.976;30.316;2022-12-18T12:38:35;102200.59;;;-5.31;73.81
75855;BME280;64502;59.976;30.316;2022-12-18T12:41:07;102211.59;;;-5.35;73.66
75855;BME280;64502;59.976;30.316;2022-12-18T12:43:56;102208.16;;;-5.36;74.66
75855;BME280;64502;59.976;30.316;2022-12-18T12:46:24;102206.38;;;-5.38;74.46
75855;BME280;64502;59.976;30.316;2022-12-18T12:49:00;102204.81;;;-5.33;74.57
75855;BME280;64502;59.976;30.316;2022-12-18T12:51:39;102206.69;;;-5.27;75.20
75855;BME280;64502;59.976;30.316;2022-12-18T12:54:21;102207.88;;;-5.18;75.68
75855;BME280;64502;59.976;30.316;2022-12-18T13:02:52;102203.22;;;-5.01;74.79
75855;BME280;64502;59.976;30.316;2022-12-18T13:05:34;102208.50;;;-4.96;74.41
75855;BME280;64502;59.976;30.316;2022-12-18T13:08:08;102210.31;;;-4.94;74.64
75855;BME280;64502;59.976;30.316;2022-12-18T13:10:39;102206.84;;;-4.94;75.12
75855;BME280;64502;59.976;30.316;2022-12-18T13:13:13;102191.06;;;-5.05;75.17
75855;BME280;64502;59.976;30.316;2022-12-18T13:15:48;102192.66;;;-5.10;75.07
75855;BME280;64502;59.976;30.316;2022-12-18T13:18:20;102188.16;;;-5.17;75.14
75855;BME280;64502;59.976;30.316;2022-12-18T13:25:59;102182.34;;;-5.39;75.78
75855;BME280;64502;59.976;30.316;2022-12-18T13:31:12;102183.78;;;-5.48;75.50
75855;BME280;64502;59.976;30.316;2022-12-18T13:33:45;102187.06;;;-5.52;75.94
75855;BME280;64502;59.976;30.316;2022-12-18T13:38:43;102193.56;;;-5.64;76.32
75855;BME280;64502;59.976;30.316;2022-12-18T13:43:47;102193.56;;;-5.64;77.10
75855;BME280;64502;59.976;30.316;2022-12-18T13:46:25;102186.16;;;-5.54;76.57
75855;BME280;64502;59.976;30.316;2022-12-18T13:49:43;102180.31;;;-5.49;76.36
75855;BME280;64502;59.976;30.316;2022-12-18T13:51:48;102175.50;;;-5.38;76.08
75855;BME280;64502;59.976;30.316;2022-12-18T13:54:18;102168.94;;;-5.28;76.03
75855;BME280;64502;59.976;30.316;2022-12-18T13:56:46;102164.94;;;-5.19;76.17
75855;BME280;64502;59.976;30.316;2022-12-18T14:01:44;102154.38;;;-4.99;75.28
75855;BME280;64502;59.976;30.316;2022-12-18T14:04:16;102160.50;;;-4.94;75.31
75855;BME280;64502;59.976;30.316;2022-12-18T14:06:44;102162.44;;;-4.87;74.67
75855;BME280;64502;59.976;30.316;2022-12-18T14:09:15;102143.63;;;-4.84;75.74
75855;BME280;64502;59.976;30.316;2022-12-18T14:11:46;102137.72;;;-4.80;75.32
75855;BME280;64502;59.976;30.316;2022-12-18T14:14:15;102134.47;;;-4.75;74.89
75855;BME280;64502;59.976;30.316;2022-12-18T14:16:41;102133.63;;;-4.74;74.38
75855;BME280;64502;59.976;30.316;2022-12-18T14:19:12;102135.44;;;-4.70;74.33
75855;BME280;64502;59.976;30.316;2022-12-18T14:21:40;102133.75;;;-4.69;74.54
75855;BME280;64502;59.976;30.316;2022-12-18T14:26:34;102134.72;;;-4.65;75.09